Página principal
METAR-TAF:

METAR-TAF

Aeroportos :

Aeroporto Internacional de Ancara Esenboğa

Ancara Esenboğa, Turquia

latitude: 40-07N, longitude: 032-59E, altura: 953 m

Observação actual do tempo

O boletim foi feito há 44 minutos, às 14:50 UTC
Vento 6 kt de nor-nordeste
Temperatura 9°C
Humidade 34%
Pressão 1020 hPa
Visibilidade 10 km ou mais
sem nuvens abaixo de 1500 metros e sem cumulonimbus

METAR: LTAC 171450Z 03006KT CAVOK 09/M06 Q1020 NOSIG RMK RWY21L 02008KT RWY03L 03006KT RWY21R 04008KT

Hora: 18:34 (15:34 UTC)

Previsão

O boletim foi feito há 4 horas e 54 minutos, às 10:40 UTC
Previsão válida de 17 às 12 UTC a 18 às 12 UTC
Vento 2 kt com direcção variável
Visibilidade 10 km ou mais
sem nuvens abaixo de 1500 metros e sem cumulonimbus

TAF: LTAC 171040Z 1712/1812 VRB02KT CAVOK

Observações e previsões do tempo de mais de 4000 aeroportos (mensagens METAR e TAF).

As estações disponíveis são os pontos amarelos e vermelhos sobre o mapa.

Mova o rato sobre o mapa para ver o nome da estação.

Depois clique no ponto para visualizar as observações e previsões meteorológicas.

Para alterar o mapa : clique nos botões verdes com uma cruz preta para aumentar o zoom; no botão verde com uma pitada de zoom; ou nas setas verdes para mapas adjacentes.


METAR-TAF: